Pagrindinis puslapis
METAR-TAF:

METAR-TAF

Oro uostai :

Ušakas, Turkija

platuma: 38-40N, ilguma: 029-25E, Aukštis: 919 m

Dabartinis oras

Ataskaita buvo paskelbta 16 minutes, ne 06:50 UTC
Vėjas 7 kt iš Pietų/Pietvakarių, svyruoja nuo Pietų ir Vakarų
Temperatūra 19°C
Drėgmė 37%
Slėgis 1016 hPa
Matomumas 10 km arba daugiau
nėra debesų žemiau 1500 m ir nėra kamuolinių lietaus debesų

METAR: LTBO 140650Z 20007KT 170V270 CAVOK 19/04 Q1016

Laikas: 10:06 (07:06 UTC)

Prognozė

Ataskaita buvo paskelbta 2 valandos ir 26 minutes, ne 04:40 UTC
Prognozė galioja nuo 14 metu 06 UTC su 14 metu 15 UTC
Vėjas 2 kt nuo kintamojo kryptimis
Matomumas 10 km arba daugiau
nėra debesų žemiau 1500 m ir nėra kamuolinių lietaus debesų
Tapsmas
nuo 14 metu 07 UTC su 14 metu 10 UTC
Vėjas 15 kt iš Vakarų su gūsio iki 25 kt

TAF: LTBO 140440Z 1406/1415 VRB02KT CAVOK BECMG 1407/1410 26015G25KT

Orai ataskaitas ir orų prognozės (METAR, TAF).

turimą stotys yra geltonos ir raudonos taškus žemėlapyje.

Perkelti pele per norėdami pamatyti stoties vardą.

Tada spustelėkite, norėdami matyti oro stebėjimo ir prognozės.

Norėdami pakeisti žemėlapį: spustelėkite ant žalios mygtukų su juodo kryžiaus žemyn,; žalią mygtuką su brūkšneliu, jei norite nutolinti; arba žalių rodyklių gretimoms žemėlapius.


METAR-TAF: